sensor_id;sensor_type;location;lat;lon;timestamp;temperature;humidity
39601;DHT22;25297;44.758;11.310;2024-03-07T00:02:17;12.70;90.40
39601;DHT22;25297;44.758;11.310;2024-03-07T00:04:46;12.70;90.50
39601;DHT22;25297;44.758;11.310;2024-03-07T00:07:12;12.70;90.50
39601;DHT22;25297;44.758;11.310;2024-03-07T00:09:38;12.70;91.00
39601;DHT22;25297;44.758;11.310;2024-03-07T00:12:04;12.70;90.80
39601;DHT22;25297;44.758;11.310;2024-03-07T00:14:31;12.70;90.80
39601;DHT22;25297;44.758;11.310;2024-03-07T00:16:58;12.70;90.80
39601;DHT22;25297;44.758;11.310;2024-03-07T00:19:27;12.70;90.90
39601;DHT22;25297;44.758;11.310;2024-03-07T00:21:53;12.70;91.00
39601;DHT22;25297;44.758;11.310;2024-03-07T00:24:19;12.70;91.20
39601;DHT22;25297;44.758;11.310;2024-03-07T00:26:45;12.70;91.20
39601;DHT22;25297;44.758;11.310;2024-03-07T00:29:11;12.70;91.10
39601;DHT22;25297;44.758;11.310;2024-03-07T00:31:36;12.70;91.40
39601;DHT22;25297;44.758;11.310;2024-03-07T00:34:02;12.80;91.60
39601;DHT22;25297;44.758;11.310;2024-03-07T00:36:28;12.80;91.70
39601;DHT22;25297;44.758;11.310;2024-03-07T00:38:53;12.90;91.50
39601;DHT22;25297;44.758;11.310;2024-03-07T00:41:19;12.90;91.70
39601;DHT22;25297;44.758;11.310;2024-03-07T00:43:46;12.90;91.70
39601;DHT22;25297;44.758;11.310;2024-03-07T00:46:12;12.90;91.80
39601;DHT22;25297;44.758;11.310;2024-03-07T00:48:37;12.90;91.60
39601;DHT22;25297;44.758;11.310;2024-03-07T00:51:04;12.90;91.90
39601;DHT22;25297;44.758;11.310;2024-03-07T00:53:30;12.90;91.90
39601;DHT22;25297;44.758;11.310;2024-03-07T00:55:56;12.90;92.00
39601;DHT22;25297;44.758;11.310;2024-03-07T00:58:22;12.90;92.20
39601;DHT22;25297;44.758;11.310;2024-03-07T01:00:47;12.90;92.30
39601;DHT22;25297;44.758;11.310;2024-03-07T01:03:13;12.90;92.50
39601;DHT22;25297;44.758;11.310;2024-03-07T01:05:43;12.90;92.60
39601;DHT22;25297;44.758;11.310;2024-03-07T01:08:09;12.90;92.70
39601;DHT22;25297;44.758;11.310;2024-03-07T01:10:35;12.90;92.90
39601;DHT22;25297;44.758;11.310;2024-03-07T01:13:00;12.90;92.80
39601;DHT22;25297;44.758;11.310;2024-03-07T01:15:28;12.90;92.90
39601;DHT22;25297;44.758;11.310;2024-03-07T01:17:54;12.90;92.90
39601;DHT22;25297;44.758;11.310;2024-03-07T01:20:19;12.90;93.00
39601;DHT22;25297;44.758;11.310;2024-03-07T01:22:45;12.90;92.90
39601;DHT22;25297;44.758;11.310;2024-03-07T01:25:11;12.90;92.90
39601;DHT22;25297;44.758;11.310;2024-03-07T01:27:38;12.90;92.80
39601;DHT22;25297;44.758;11.310;2024-03-07T01:30:04;12.90;92.70
39601;DHT22;25297;44.758;11.310;2024-03-07T01:32:33;12.90;92.70
39601;DHT22;25297;44.758;11.310;2024-03-07T01:34:59;12.90;92.70
39601;DHT22;25297;44.758;11.310;2024-03-07T01:37:24;12.90;92.60
39601;DHT22;25297;44.758;11.310;2024-03-07T01:39:50;12.90;92.60
39601;DHT22;25297;44.758;11.310;2024-03-07T01:42:16;12.80;92.70
39601;DHT22;25297;44.758;11.310;2024-03-07T01:44:41;12.80;92.70
39601;DHT22;25297;44.758;11.310;2024-03-07T01:47:09;12.80;92.60
39601;DHT22;25297;44.758;11.310;2024-03-07T01:49:36;12.80;92.70
39601;DHT22;25297;44.758;11.310;2024-03-07T01:52:03;12.80;92.70
39601;DHT22;25297;44.758;11.310;2024-03-07T01:54:31;12.80;92.90
39601;DHT22;25297;44.758;11.310;2024-03-07T01:56:57;12.70;92.60
39601;DHT22;25297;44.758;11.310;2024-03-07T01:59:24;12.70;92.50
39601;DHT22;25297;44.758;11.310;2024-03-07T02:01:50;12.70;93.10
39601;DHT22;25297;44.758;11.310;2024-03-07T02:04:16;12.70;92.90
39601;DHT22;25297;44.758;11.310;2024-03-07T02:06:42;12.70;92.90
39601;DHT22;25297;44.758;11.310;2024-03-07T02:09:08;12.60;92.90
39601;DHT22;25297;44.758;11.310;2024-03-07T02:11:34;12.60;93.00
39601;DHT22;25297;44.758;11.310;2024-03-07T02:13:59;12.60;93.00
39601;DHT22;25297;44.758;11.310;2024-03-07T02:16:25;12.60;93.40
39601;DHT22;25297;44.758;11.310;2024-03-07T02:18:51;12.60;93.00
39601;DHT22;25297;44.758;11.310;2024-03-07T02:21:17;12.60;93.30
39601;DHT22;25297;44.758;11.310;2024-03-07T02:23:42;12.60;93.30
39601;DHT22;25297;44.758;11.310;2024-03-07T02:26:09;12.60;93.40
39601;DHT22;25297;44.758;11.310;2024-03-07T02:28:35;12.70;93.40
39601;DHT22;25297;44.758;11.310;2024-03-07T02:31:01;12.60;93.50
39601;DHT22;25297;44.758;11.310;2024-03-07T02:33:26;12.60;93.60
39601;DHT22;25297;44.758;11.310;2024-03-07T02:35:52;12.60;93.60
39601;DHT22;25297;44.758;11.310;2024-03-07T02:38:18;12.60;93.70
39601;DHT22;25297;44.758;11.310;2024-03-07T02:40:45;12.60;93.70
39601;DHT22;25297;44.758;11.310;2024-03-07T02:43:11;12.70;93.80
39601;DHT22;25297;44.758;11.310;2024-03-07T02:45:37;12.70;93.70
39601;DHT22;25297;44.758;11.310;2024-03-07T02:48:03;12.70;93.80
39601;DHT22;25297;44.758;11.310;2024-03-07T02:50:30;12.60;93.90
39601;DHT22;25297;44.758;11.310;2024-03-07T02:52:56;12.60;93.90
39601;DHT22;25297;44.758;11.310;2024-03-07T02:55:22;12.60;94.00
39601;DHT22;25297;44.758;11.310;2024-03-07T02:57:47;12.60;94.10
39601;DHT22;25297;44.758;11.310;2024-03-07T03:00:13;12.60;94.20
39601;DHT22;25297;44.758;11.310;2024-03-07T03:02:48;12.60;94.30
39601;DHT22;25297;44.758;11.310;2024-03-07T03:05:17;12.60;94.40
39601;DHT22;25297;44.758;11.310;2024-03-07T03:07:44;12.70;94.20
39601;DHT22;25297;44.758;11.310;2024-03-07T03:10:24;12.70;94.50
39601;DHT22;25297;44.758;11.310;2024-03-07T03:12:52;12.70;94.40
39601;DHT22;25297;44.758;11.310;2024-03-07T03:15:19;12.70;94.40
39601;DHT22;25297;44.758;11.310;2024-03-07T03:17:46;12.70;94.40
39601;DHT22;25297;44.758;11.310;2024-03-07T03:20:12;12.70;94.30
39601;DHT22;25297;44.758;11.310;2024-03-07T03:22:47;12.70;94.40
39601;DHT22;25297;44.758;11.310;2024-03-07T03:25:14;12.70;94.30
39601;DHT22;25297;44.758;11.310;2024-03-07T03:27:40;12.70;94.40
39601;DHT22;25297;44.758;11.310;2024-03-07T03:30:06;12.70;94.40
39601;DHT22;25297;44.758;11.310;2024-03-07T03:32:32;12.70;94.50
39601;DHT22;25297;44.758;11.310;2024-03-07T03:34:58;12.70;94.40
39601;DHT22;25297;44.758;11.310;2024-03-07T03:37:23;12.70;94.50
39601;DHT22;25297;44.758;11.310;2024-03-07T03:39:49;12.70;94.60
39601;DHT22;25297;44.758;11.310;2024-03-07T03:42:16;12.70;94.70
39601;DHT22;25297;44.758;11.310;2024-03-07T03:44:41;12.70;94.70
39601;DHT22;25297;44.758;11.310;2024-03-07T03:47:07;12.70;94.70
39601;DHT22;25297;44.758;11.310;2024-03-07T03:49:32;12.70;94.70
39601;DHT22;25297;44.758;11.310;2024-03-07T03:51:58;12.70;94.70
39601;DHT22;25297;44.758;11.310;2024-03-07T03:54:25;12.70;94.70
39601;DHT22;25297;44.758;11.310;2024-03-07T03:56:50;12.70;94.60
39601;DHT22;25297;44.758;11.310;2024-03-07T03:59:16;12.70;94.60
39601;DHT22;25297;44.758;11.310;2024-03-07T04:01:42;12.60;94.60
39601;DHT22;25297;44.758;11.310;2024-03-07T04:04:07;12.70;94.60
39601;DHT22;25297;44.758;11.310;2024-03-07T04:06:34;12.70;94.60
39601;DHT22;25297;44.758;11.310;2024-03-07T04:09:00;12.60;94.40
39601;DHT22;25297;44.758;11.310;2024-03-07T04:11:26;12.60;94.30
39601;DHT22;25297;44.758;11.310;2024-03-07T04:13:52;12.60;94.40
39601;DHT22;25297;44.758;11.310;2024-03-07T04:16:17;12.60;94.40
39601;DHT22;25297;44.758;11.310;2024-03-07T04:18:43;12.50;94.40
39601;DHT22;25297;44.758;11.310;2024-03-07T04:21:09;12.50;94.50
39601;DHT22;25297;44.758;11.310;2024-03-07T04:23:35;12.50;94.40
39601;DHT22;25297;44.758;11.310;2024-03-07T04:26:00;12.40;94.40
39601;DHT22;25297;44.758;11.310;2024-03-07T04:28:26;12.50;94.50
39601;DHT22;25297;44.758;11.310;2024-03-07T04:30:53;12.50;94.60
39601;DHT22;25297;44.758;11.310;2024-03-07T04:33:19;12.40;94.60
39601;DHT22;25297;44.758;11.310;2024-03-07T04:35:45;12.40;94.60
39601;DHT22;25297;44.758;11.310;2024-03-07T04:38:10;12.50;94.70
39601;DHT22;25297;44.758;11.310;2024-03-07T04:40:43;12.40;94.80
39601;DHT22;25297;44.758;11.310;2024-03-07T04:43:08;12.50;94.90
39601;DHT22;25297;44.758;11.310;2024-03-07T04:45:34;12.50;95.00
39601;DHT22;25297;44.758;11.310;2024-03-07T04:48:00;12.50;95.00
39601;DHT22;25297;44.758;11.310;2024-03-07T04:50:25;12.50;95.00
39601;DHT22;25297;44.758;11.310;2024-03-07T04:52:51;12.50;94.90
39601;DHT22;25297;44.758;11.310;2024-03-07T04:55:18;12.50;95.00
39601;DHT22;25297;44.758;11.310;2024-03-07T04:57:44;12.50;95.00
39601;DHT22;25297;44.758;11.310;2024-03-07T05:00:11;12.50;95.00
39601;DHT22;25297;44.758;11.310;2024-03-07T05:02:40;12.60;95.00
39601;DHT22;25297;44.758;11.310;2024-03-07T05:05:06;12.60;95.00
39601;DHT22;25297;44.758;11.310;2024-03-07T05:07:33;12.60;95.00
39601;DHT22;25297;44.758;11.310;2024-03-07T05:09:58;12.60;94.90
39601;DHT22;25297;44.758;11.310;2024-03-07T05:12:24;12.50;94.90
39601;DHT22;25297;44.758;11.310;2024-03-07T05:14:50;12.60;95.00
39601;DHT22;25297;44.758;11.310;2024-03-07T05:17:15;12.50;95.10
39601;DHT22;25297;44.758;11.310;2024-03-07T05:19:41;12.50;95.20
39601;DHT22;25297;44.758;11.310;2024-03-07T05:22:06;12.50;95.20
39601;DHT22;25297;44.758;11.310;2024-03-07T05:24:33;12.50;95.20
39601;DHT22;25297;44.758;11.310;2024-03-07T05:26:59;12.40;95.30
39601;DHT22;25297;44.758;11.310;2024-03-07T05:29:25;12.50;95.30
39601;DHT22;25297;44.758;11.310;2024-03-07T05:31:51;12.50;95.30
39601;DHT22;25297;44.758;11.310;2024-03-07T05:34:16;12.40;95.30
39601;DHT22;25297;44.758;11.310;2024-03-07T05:36:46;12.40;95.40
39601;DHT22;25297;44.758;11.310;2024-03-07T05:39:16;12.40;95.50
39601;DHT22;25297;44.758;11.310;2024-03-07T05:41:43;12.40;95.50
39601;DHT22;25297;44.758;11.310;2024-03-07T05:44:12;12.40;95.50
39601;DHT22;25297;44.758;11.310;2024-03-07T05:46:39;12.40;95.50
39601;DHT22;25297;44.758;11.310;2024-03-07T05:49:11;12.40;95.60
39601;DHT22;25297;44.758;11.310;2024-03-07T05:51:37;12.40;95.60
39601;DHT22;25297;44.758;11.310;2024-03-07T05:54:03;12.40;95.70
39601;DHT22;25297;44.758;11.310;2024-03-07T05:56:35;12.40;95.70
39601;DHT22;25297;44.758;11.310;2024-03-07T05:59:02;12.40;95.70
39601;DHT22;25297;44.758;11.310;2024-03-07T06:01:30;12.40;95.80
39601;DHT22;25297;44.758;11.310;2024-03-07T06:03:58;12.50;95.70
39601;DHT22;25297;44.758;11.310;2024-03-07T06:06:25;12.50;95.60
39601;DHT22;25297;44.758;11.310;2024-03-07T06:08:50;12.50;95.40
39601;DHT22;25297;44.758;11.310;2024-03-07T06:11:16;12.50;95.40
39601;DHT22;25297;44.758;11.310;2024-03-07T06:13:47;12.50;95.40
39601;DHT22;25297;44.758;11.310;2024-03-07T06:16:12;12.50;95.40
39601;DHT22;25297;44.758;11.310;2024-03-07T06:18:41;12.50;95.40
39601;DHT22;25297;44.758;11.310;2024-03-07T06:21:06;12.50;95.30
39601;DHT22;25297;44.758;11.310;2024-03-07T06:23:33;12.40;95.30
39601;DHT22;25297;44.758;11.310;2024-03-07T06:26:00;12.50;95.30
39601;DHT22;25297;44.758;11.310;2024-03-07T06:28:26;12.50;95.40
39601;DHT22;25297;44.758;11.310;2024-03-07T06:30:54;12.50;95.40
39601;DHT22;25297;44.758;11.310;2024-03-07T06:33:20;12.60;95.40
39601;DHT22;25297;44.758;11.310;2024-03-07T06:35:47;12.60;95.40
39601;DHT22;25297;44.758;11.310;2024-03-07T06:38:13;12.60;95.40
39601;DHT22;25297;44.758;11.310;2024-03-07T06:40:40;12.60;95.40
39601;DHT22;25297;44.758;11.310;2024-03-07T06:43:06;12.70;95.40
39601;DHT22;25297;44.758;11.310;2024-03-07T06:45:35;12.70;95.40
39601;DHT22;25297;44.758;11.310;2024-03-07T06:48:03;12.70;95.40
39601;DHT22;25297;44.758;11.310;2024-03-07T06:50:29;12.70;95.40
39601;DHT22;25297;44.758;11.310;2024-03-07T06:52:55;12.70;95.50
39601;DHT22;25297;44.758;11.310;2024-03-07T06:55:21;12.80;95.50
39601;DHT22;25297;44.758;11.310;2024-03-07T06:57:47;12.80;95.50
39601;DHT22;25297;44.758;11.310;2024-03-07T07:00:14;12.80;95.40
39601;DHT22;25297;44.758;11.310;2024-03-07T07:02:44;12.80;95.20
39601;DHT22;25297;44.758;11.310;2024-03-07T07:05:10;12.90;95.20
39601;DHT22;25297;44.758;11.310;2024-03-07T07:07:41;12.90;95.20
39601;DHT22;25297;44.758;11.310;2024-03-07T07:10:08;12.90;95.10
39601;DHT22;25297;44.758;11.310;2024-03-07T07:12:39;12.90;95.00
39601;DHT22;25297;44.758;11.310;2024-03-07T07:15:05;12.90;94.90
39601;DHT22;25297;44.758;11.310;2024-03-07T07:17:31;12.90;94.80
39601;DHT22;25297;44.758;11.310;2024-03-07T07:19:59;12.90;94.50
39601;DHT22;25297;44.758;11.310;2024-03-07T07:22:25;12.90;94.10
39601;DHT22;25297;44.758;11.310;2024-03-07T07:24:51;12.90;94.00
39601;DHT22;25297;44.758;11.310;2024-03-07T07:27:17;12.90;94.00
39601;DHT22;25297;44.758;11.310;2024-03-07T07:29:44;12.80;94.20
39601;DHT22;25297;44.758;11.310;2024-03-07T07:32:11;12.80;94.00
39601;DHT22;25297;44.758;11.310;2024-03-07T07:34:38;12.80;94.00
39601;DHT22;25297;44.758;11.310;2024-03-07T07:37:04;12.70;93.90
39601;DHT22;25297;44.758;11.310;2024-03-07T07:39:30;12.80;93.80
39601;DHT22;25297;44.758;11.310;2024-03-07T07:41:57;12.70;93.40
39601;DHT22;25297;44.758;11.310;2024-03-07T07:44:22;12.80;93.50
39601;DHT22;25297;44.758;11.310;2024-03-07T07:46:48;12.80;93.70
39601;DHT22;25297;44.758;11.310;2024-03-07T07:49:15;12.90;93.80
39601;DHT22;25297;44.758;11.310;2024-03-07T07:51:41;12.90;93.70
39601;DHT22;25297;44.758;11.310;2024-03-07T07:54:07;13.00;93.60
39601;DHT22;25297;44.758;11.310;2024-03-07T07:56:35;13.00;93.70
39601;DHT22;25297;44.758;11.310;2024-03-07T07:59:01;13.10;93.80
39601;DHT22;25297;44.758;11.310;2024-03-07T08:01:26;13.20;93.80
39601;DHT22;25297;44.758;11.310;2024-03-07T08:03:53;13.20;94.00
39601;DHT22;25297;44.758;11.310;2024-03-07T08:06:19;13.30;94.00
39601;DHT22;25297;44.758;11.310;2024-03-07T08:08:46;13.30;94.10
39601;DHT22;25297;44.758;11.310;2024-03-07T08:11:11;13.40;94.30
39601;DHT22;25297;44.758;11.310;2024-03-07T08:13:40;13.50;94.30
39601;DHT22;25297;44.758;11.310;2024-03-07T08:16:05;13.60;94.30
39601;DHT22;25297;44.758;11.310;2024-03-07T08:18:32;13.70;94.10
39601;DHT22;25297;44.758;11.310;2024-03-07T08:20:58;13.80;94.00
39601;DHT22;25297;44.758;11.310;2024-03-07T08:23:23;13.90;93.90
39601;DHT22;25297;44.758;11.310;2024-03-07T08:25:51;14.00;93.80
39601;DHT22;25297;44.758;11.310;2024-03-07T08:28:17;14.20;93.30
39601;DHT22;25297;44.758;11.310;2024-03-07T08:30:43;14.10;93.50
39601;DHT22;25297;44.758;11.310;2024-03-07T08:33:10;14.30;93.20
39601;DHT22;25297;44.758;11.310;2024-03-07T08:35:36;14.40;93.30
39601;DHT22;25297;44.758;11.310;2024-03-07T08:38:02;14.40;92.90
39601;DHT22;25297;44.758;11.310;2024-03-07T08:40:29;14.50;92.60
39601;DHT22;25297;44.758;11.310;2024-03-07T08:42:57;14.60;92.20
39601;DHT22;25297;44.758;11.310;2024-03-07T08:45:24;14.70;92.00
39601;DHT22;25297;44.758;11.310;2024-03-07T08:47:51;14.70;92.30
39601;DHT22;25297;44.758;11.310;2024-03-07T08:50:18;14.80;92.40
39601;DHT22;25297;44.758;11.310;2024-03-07T08:52:45;14.90;92.00
39601;DHT22;25297;44.758;11.310;2024-03-07T08:55:23;15.00;91.60
39601;DHT22;25297;44.758;11.310;2024-03-07T08:57:52;15.10;91.40
39601;DHT22;25297;44.758;11.310;2024-03-07T09:00:19;15.10;91.40
39601;DHT22;25297;44.758;11.310;2024-03-07T09:02:48;15.20;91.20
39601;DHT22;25297;44.758;11.310;2024-03-07T09:05:22;15.30;91.30
39601;DHT22;25297;44.758;11.310;2024-03-07T09:07:49;15.30;91.40
39601;DHT22;25297;44.758;11.310;2024-03-07T09:10:15;15.40;91.10
39601;DHT22;25297;44.758;11.310;2024-03-07T09:12:42;15.50;91.20
39601;DHT22;25297;44.758;11.310;2024-03-07T09:15:09;15.50;90.80
39601;DHT22;25297;44.758;11.310;2024-03-07T09:17:38;15.60;90.70
39601;DHT22;25297;44.758;11.310;2024-03-07T09:20:05;15.60;90.70
39601;DHT22;25297;44.758;11.310;2024-03-07T09:22:31;15.70;90.50
39601;DHT22;25297;44.758;11.310;2024-03-07T09:24:58;15.70;90.20
39601;DHT22;25297;44.758;11.310;2024-03-07T09:27:24;15.80;89.90
39601;DHT22;25297;44.758;11.310;2024-03-07T09:29:50;15.80;89.30
39601;DHT22;25297;44.758;11.310;2024-03-07T09:32:15;15.80;88.50
39601;DHT22;25297;44.758;11.310;2024-03-07T09:34:42;15.90;88.40
39601;DHT22;25297;44.758;11.310;2024-03-07T09:37:08;15.90;88.40
39601;DHT22;25297;44.758;11.310;2024-03-07T09:39:34;15.90;87.90
39601;DHT22;25297;44.758;11.310;2024-03-07T09:42:08;16.00;88.20
39601;DHT22;25297;44.758;11.310;2024-03-07T09:44:38;16.00;88.10
39601;DHT22;25297;44.758;11.310;2024-03-07T09:47:05;16.10;87.50
39601;DHT22;25297;44.758;11.310;2024-03-07T09:49:33;16.10;87.20
39601;DHT22;25297;44.758;11.310;2024-03-07T09:52:04;16.10;87.30
39601;DHT22;25297;44.758;11.310;2024-03-07T09:54:34;16.20;88.40
39601;DHT22;25297;44.758;11.310;2024-03-07T09:57:00;16.30;88.70
39601;DHT22;25297;44.758;11.310;2024-03-07T09:59:28;16.30;86.60
39601;DHT22;25297;44.758;11.310;2024-03-07T10:01:59;16.30;86.40
39601;DHT22;25297;44.758;11.310;2024-03-07T10:04:48;16.30;85.70
39601;DHT22;25297;44.758;11.310;2024-03-07T10:07:16;16.40;86.30
39601;DHT22;25297;44.758;11.310;2024-03-07T10:09:42;16.40;85.80
39601;DHT22;25297;44.758;11.310;2024-03-07T10:12:09;16.50;85.90
39601;DHT22;25297;44.758;11.310;2024-03-07T10:14:56;16.50;86.00
39601;DHT22;25297;44.758;11.310;2024-03-07T10:17:25;16.60;85.20
39601;DHT22;25297;44.758;11.310;2024-03-07T10:19:54;16.60;85.60
39601;DHT22;25297;44.758;11.310;2024-03-07T10:22:21;16.60;84.70
39601;DHT22;25297;44.758;11.310;2024-03-07T10:24:52;16.70;84.10
39601;DHT22;25297;44.758;11.310;2024-03-07T10:27:19;16.70;84.00
39601;DHT22;25297;44.758;11.310;2024-03-07T10:29:47;16.70;84.20
39601;DHT22;25297;44.758;11.310;2024-03-07T10:32:13;16.80;84.30
39601;DHT22;25297;44.758;11.310;2024-03-07T10:34:39;16.80;84.30
39601;DHT22;25297;44.758;11.310;2024-03-07T10:37:05;16.80;84.50
39601;DHT22;25297;44.758;11.310;2024-03-07T10:39:30;16.90;84.90
39601;DHT22;25297;44.758;11.310;2024-03-07T10:42:00;16.90;83.80
39601;DHT22;25297;44.758;11.310;2024-03-07T10:44:31;17.00;84.00
39601;DHT22;25297;44.758;11.310;2024-03-07T10:46:58;17.00;83.80
39601;DHT22;25297;44.758;11.310;2024-03-07T10:49:31;17.00;83.80
39601;DHT22;25297;44.758;11.310;2024-03-07T10:52:06;17.10;83.30
39601;DHT22;25297;44.758;11.310;2024-03-07T10:57:50;17.10;82.00
39601;DHT22;25297;44.758;11.310;2024-03-07T11:00:21;17.10;81.60
39601;DHT22;25297;44.758;11.310;2024-03-07T11:03:01;17.10;81.10
39601;DHT22;25297;44.758;11.310;2024-03-07T11:05:28;17.10;81.20
39601;DHT22;25297;44.758;11.310;2024-03-07T11:08:01;17.10;80.90
39601;DHT22;25297;44.758;11.310;2024-03-07T11:10:37;17.10;82.20
39601;DHT22;25297;44.758;11.310;2024-03-07T11:13:04;17.20;81.30
39601;DHT22;25297;44.758;11.310;2024-03-07T11:15:32;17.10;81.40
39601;DHT22;25297;44.758;11.310;2024-03-07T11:17:58;17.20;80.50
39601;DHT22;25297;44.758;11.310;2024-03-07T11:20:36;17.20;80.70
39601;DHT22;25297;44.758;11.310;2024-03-07T11:26:07;17.30;81.10
39601;DHT22;25297;44.758;11.310;2024-03-07T11:28:37;17.30;80.00
39601;DHT22;25297;44.758;11.310;2024-03-07T11:31:34;17.40;80.10
39601;DHT22;25297;44.758;11.310;2024-03-07T11:34:15;17.50;80.20
39601;DHT22;25297;44.758;11.310;2024-03-07T11:36:48;17.50;79.60
39601;DHT22;25297;44.758;11.310;2024-03-07T11:39:40;17.50;80.50
39601;DHT22;25297;44.758;11.310;2024-03-07T11:42:09;17.60;79.40
39601;DHT22;25297;44.758;11.310;2024-03-07T11:44:35;17.60;78.00
39601;DHT22;25297;44.758;11.310;2024-03-07T11:47:03;17.50;77.10
39601;DHT22;25297;44.758;11.310;2024-03-07T11:49:35;17.50;77.60
39601;DHT22;25297;44.758;11.310;2024-03-07T11:52:02;17.50;78.00
39601;DHT22;25297;44.758;11.310;2024-03-07T11:54:38;17.60;78.70
39601;DHT22;25297;44.758;11.310;2024-03-07T11:57:18;17.60;78.40
39601;DHT22;25297;44.758;11.310;2024-03-07T11:59:58;17.70;78.80
39601;DHT22;25297;44.758;11.310;2024-03-07T12:02:27;17.80;78.40
39601;DHT22;25297;44.758;11.310;2024-03-07T12:04:53;17.90;77.30
39601;DHT22;25297;44.758;11.310;2024-03-07T12:07:19;17.90;73.50
39601;DHT22;25297;44.758;11.310;2024-03-07T12:09:48;17.90;74.10
39601;DHT22;25297;44.758;11.310;2024-03-07T12:12:20;18.00;74.00
39601;DHT22;25297;44.758;11.310;2024-03-07T12:14:50;17.90;73.20
39601;DHT22;25297;44.758;11.310;2024-03-07T12:17:20;17.90;73.90
39601;DHT22;25297;44.758;11.310;2024-03-07T12:19:46;17.90;75.30
39601;DHT22;25297;44.758;11.310;2024-03-07T12:22:13;17.90;74.30
39601;DHT22;25297;44.758;11.310;2024-03-07T12:24:39;17.90;72.70
39601;DHT22;25297;44.758;11.310;2024-03-07T12:27:08;17.80;72.90
39601;DHT22;25297;44.758;11.310;2024-03-07T12:29:36;17.80;72.50
39601;DHT22;25297;44.758;11.310;2024-03-07T12:32:07;17.80;73.50
39601;DHT22;25297;44.758;11.310;2024-03-07T12:34:34;17.80;75.20
39601;DHT22;25297;44.758;11.310;2024-03-07T12:37:03;17.80;76.40
39601;DHT22;25297;44.758;11.310;2024-03-07T12:39:32;17.80;77.60
39601;DHT22;25297;44.758;11.310;2024-03-07T12:42:03;17.90;77.70
39601;DHT22;25297;44.758;11.310;2024-03-07T12:44:39;17.90;76.40
39601;DHT22;25297;44.758;11.310;2024-03-07T12:47:09;17.80;76.20
39601;DHT22;25297;44.758;11.310;2024-03-07T12:49:35;17.80;75.20
39601;DHT22;25297;44.758;11.310;2024-03-07T12:52:01;17.80;76.00
39601;DHT22;25297;44.758;11.310;2024-03-07T12:54:26;17.80;73.90
39601;DHT22;25297;44.758;11.310;2024-03-07T12:56:52;17.90;74.00
39601;DHT22;25297;44.758;11.310;2024-03-07T12:59:18;17.90;73.90
39601;DHT22;25297;44.758;11.310;2024-03-07T13:01:45;18.00;73.40
39601;DHT22;25297;44.758;11.310;2024-03-07T13:04:13;18.10;71.80
39601;DHT22;25297;44.758;11.310;2024-03-07T13:06:39;18.20;73.30
39601;DHT22;25297;44.758;11.310;2024-03-07T13:09:09;18.30;76.10
39601;DHT22;25297;44.758;11.310;2024-03-07T13:11:38;18.50;76.70
39601;DHT22;25297;44.758;11.310;2024-03-07T13:14:07;18.70;77.50
39601;DHT22;25297;44.758;11.310;2024-03-07T13:16:33;18.80;77.10
39601;DHT22;25297;44.758;11.310;2024-03-07T13:18:59;19.00;75.10
39601;DHT22;25297;44.758;11.310;2024-03-07T13:21:25;19.10;74.20
39601;DHT22;25297;44.758;11.310;2024-03-07T13:23:52;19.30;72.90
39601;DHT22;25297;44.758;11.310;2024-03-07T13:26:22;19.40;72.00
39601;DHT22;25297;44.758;11.310;2024-03-07T13:28:53;19.60;71.40
39601;DHT22;25297;44.758;11.310;2024-03-07T13:31:19;19.60;67.80
39601;DHT22;25297;44.758;11.310;2024-03-07T13:33:45;19.70;67.50
39601;DHT22;25297;44.758;11.310;2024-03-07T13:36:11;19.80;64.40
39601;DHT22;25297;44.758;11.310;2024-03-07T13:38:39;19.90;65.30
39601;DHT22;25297;44.758;11.310;2024-03-07T13:41:05;20.10;66.30
39601;DHT22;25297;44.758;11.310;2024-03-07T13:43:31;20.40;65.10
39601;DHT22;25297;44.758;11.310;2024-03-07T13:45:59;20.80;65.10
39601;DHT22;25297;44.758;11.310;2024-03-07T13:48:25;21.60;64.30
39601;DHT22;25297;44.758;11.310;2024-03-07T13:50:51;22.10;64.30
39601;DHT22;25297;44.758;11.310;2024-03-07T13:53:20;22.90;64.70
39601;DHT22;25297;44.758;11.310;2024-03-07T14:29:50;22.10;60.80
39601;DHT22;25297;44.758;11.310;2024-03-07T14:32:14;22.50;59.70
39601;DHT22;25297;44.758;11.310;2024-03-07T14:38:27;22.50;58.80
39601;DHT22;25297;44.758;11.310;2024-03-07T14:40:33;22.10;58.20
39601;DHT22;25297;44.758;11.310;2024-03-07T14:43:02;21.70;59.10
39601;DHT22;25297;44.758;11.310;2024-03-07T14:45:36;21.30;58.80
39601;DHT22;25297;44.758;11.310;2024-03-07T14:48:02;20.90;60.00
39601;DHT22;25297;44.758;11.310;2024-03-07T14:50:30;20.60;60.90
39601;DHT22;25297;44.758;11.310;2024-03-07T14:52:58;20.30;61.20
39601;DHT22;25297;44.758;11.310;2024-03-07T14:55:24;20.10;60.90
39601;DHT22;25297;44.758;11.310;2024-03-07T14:57:50;19.90;60.50
39601;DHT22;25297;44.758;11.310;2024-03-07T15:00:15;19.70;60.80
39601;DHT22;25297;44.758;11.310;2024-03-07T15:02:48;19.60;61.80
39601;DHT22;25297;44.758;11.310;2024-03-07T15:05:15;19.70;62.50
39601;DHT22;25297;44.758;11.310;2024-03-07T15:07:42;19.60;61.90
39601;DHT22;25297;44.758;11.310;2024-03-07T15:10:16;19.40;61.10
39601;DHT22;25297;44.758;11.310;2024-03-07T15:12:45;19.50;62.30
39601;DHT22;25297;44.758;11.310;2024-03-07T15:15:12;19.60;61.70
39601;DHT22;25297;44.758;11.310;2024-03-07T15:17:40;19.60;61.60
39601;DHT22;25297;44.758;11.310;2024-03-07T15:20:10;19.60;61.50
39601;DHT22;25297;44.758;11.310;2024-03-07T15:22:48;19.50;61.80
39601;DHT22;25297;44.758;11.310;2024-03-07T15:25:14;19.30;62.70
39601;DHT22;25297;44.758;11.310;2024-03-07T15:27:46;19.20;62.30
39601;DHT22;25297;44.758;11.310;2024-03-07T15:30:16;19.10;63.30
39601;DHT22;25297;44.758;11.310;2024-03-07T15:32:42;19.00;62.90
39601;DHT22;25297;44.758;11.310;2024-03-07T15:35:09;18.80;62.70
39601;DHT22;25297;44.758;11.310;2024-03-07T15:37:48;18.80;63.90
39601;DHT22;25297;44.758;11.310;2024-03-07T15:40:14;18.80;63.90
39601;DHT22;25297;44.758;11.310;2024-03-07T15:42:42;18.70;63.30
39601;DHT22;25297;44.758;11.310;2024-03-07T15:45:18;18.60;65.00
39601;DHT22;25297;44.758;11.310;2024-03-07T15:50:20;18.50;64.30
39601;DHT22;25297;44.758;11.310;2024-03-07T15:52:49;18.40;65.40
39601;DHT22;25297;44.758;11.310;2024-03-07T15:55:19;18.40;65.90
39601;DHT22;25297;44.758;11.310;2024-03-07T15:57:47;18.40;66.00
39601;DHT22;25297;44.758;11.310;2024-03-07T16:00:17;18.50;67.00
39601;DHT22;25297;44.758;11.310;2024-03-07T16:03:05;18.60;67.50
39601;DHT22;25297;44.758;11.310;2024-03-07T16:05:34;18.80;67.80